ADDS TAF Board (Experimental) INFO Settings
IDs: Format: Expanded Condensed

KMIA - Miami Intl, FL, US

Issued at 2045 UTC 06 May 2016
Updated at: 2232 UTC 06 May 2016
Time2153Z 06/23Z 07/00Z 07/01Z 07/02Z 07/03Z 07/04Z 07/05Z 07/06Z 07/07Z 07/08Z 07/09Z 07/10Z 07/11Z
Type OBS PRVL PRVL PRVL PRVL PRVL PRVL PRVL PRVL PRVL PRVL PRVL PRVL PRVL
VIS 10 >6 >6 >6 >6 >6 >6 >6 >6 >6 >6 >6 >6 >6
CIG -- -- -- -- -- -- -- -- -- -- -- -- -- --
Cover SCT FEW FEW FEW SKC SKC SKC SKC SKC SKC SKC SKC SKC SKC
FltCat VFR VFR VFR VFR VFR VFR VFR VFR VFR VFR VFR VFR VFR VFR
WX -- -- -- -- -- -- -- -- -- -- -- -- -- --
WDir VRB VRB VRB VRB 320 320 320 320 320 320 320 320 320 320
WSpd 4 6 6 6 5 5 5 5 5 5 5 5 5 5
WGst -- -- -- -- -- -- -- -- -- -- -- -- -- --
R08/26
XWnd VRB VRB VRB VRB 4 4 4 4 4 4 4 4 4 4
HWnd VRB VRB VRB VRB -3 -3 -3 -3 -3 -3 -3 -3 -3 -3
R09/27
XWnd VRB VRB VRB VRB 4 4 4 4 4 4 4 4 4 4
HWnd VRB VRB VRB VRB -3 -3 -3 -3 -3 -3 -3 -3 -3 -3
R12/30
XWnd VRB VRB VRB VRB 2 2 2 2 2 2 2 2 2 2
HWnd VRB VRB VRB VRB -5 -5 -5 -5 -5 -5 -5 -5 -5 -5

NOTE: TEMPO conditions in [brackets]. Keep in mind TEMPO conditions might be better (lower impact) than prevailing conditions.

Raw TAF
KMIA 062045Z 0621/0718 30008KT P6SM FEW050
  FM062200 VRB06KT P6SM FEW040
  FM070200 32005KT P6SM SKC
  FM071400 33013KT P6SM FEW050


Raw METAR
KMIA 062153Z VRB04KT 10SM SCT075 27/08 A2984 RMK AO2 SLP104 T02670083
KMIA 062053Z VRB04KT 10SM FEW070 SCT300 27/08 A2984 RMK AO2 SLP106 T02670083 56017
KMIA 061953Z 27008KT 10SM FEW065 SCT300 27/10 A2985 RMK AO2 SLP110 T02720100

METAR Board
Radar Display
Forecast Discussion

TAF Board Legend

Potential Impact
Threat None Slight Moderate High
Visibility (sm) ≥5.1 5.1>X≥3 3>X≥1 <1
Ceiling (100 ft) ≥30.1 30.1>X≥10 10>X≥5 <5
Wind Speed (kt) <10 10≤X<20 20≤X<30 ≥30
Wind Gust (kt) <15 15≤X<25 25≤X<35 ≥35
Weather No Wx Reported VCTS,-TS,-FZRA,SN TS,FZRA +TS,+FZRA,+SN